createdAt,value
2018-06-03T00:00:52.996Z,31.60
2018-06-03T00:01:52.988Z,30.50
2018-06-03T00:02:53.028Z,29.40
2018-06-03T00:03:52.961Z,30.80
2018-06-03T00:04:52.951Z,30.00
2018-06-03T00:05:52.936Z,30.00
2018-06-03T00:06:52.939Z,30.90
2018-06-03T00:08:52.898Z,31.20
2018-06-03T00:09:52.902Z,30.00
2018-06-03T00:10:52.882Z,30.90
2018-06-03T00:11:52.872Z,32.00
2018-06-03T00:12:52.855Z,31.10
2018-06-03T00:13:52.845Z,30.20
2018-06-03T00:14:52.840Z,31.40
2018-06-03T00:15:52.834Z,30.50
2018-06-03T00:16:52.820Z,30.40
2018-06-03T00:17:52.801Z,30.30
2018-06-03T00:18:52.789Z,31.30
2018-06-03T00:19:52.777Z,30.20
2018-06-03T00:20:52.771Z,30.00
2018-06-03T00:21:52.761Z,30.20
2018-06-03T00:22:52.739Z,30.30
2018-06-03T00:23:52.739Z,30.80
2018-06-03T00:24:52.723Z,31.70
2018-06-03T00:25:52.710Z,29.20
2018-06-03T00:26:52.704Z,31.00
2018-06-03T00:27:52.690Z,30.50
2018-06-03T00:28:52.681Z,30.50
2018-06-03T00:29:52.669Z,29.60
2018-06-03T00:30:52.660Z,30.30
2018-06-03T00:31:52.642Z,30.30
2018-06-03T00:32:52.633Z,30.60
2018-06-03T00:35:52.595Z,112.00
2018-06-03T00:36:52.585Z,36.90
2018-06-03T00:37:52.583Z,43.90
2018-06-03T00:38:52.563Z,33.30
2018-06-03T00:41:52.531Z,32.40
2018-06-03T00:42:52.518Z,31.70
2018-06-03T00:43:52.508Z,31.60
2018-06-03T00:44:52.495Z,31.90
2018-06-03T00:45:52.485Z,36.10
2018-06-03T00:46:52.473Z,32.70
2018-06-03T00:47:52.461Z,31.70
2018-06-03T00:49:52.441Z,32.30
2018-06-03T00:50:52.425Z,33.40
2018-06-03T00:51:52.416Z,31.30
2018-06-03T00:52:52.466Z,31.30
2018-06-03T00:53:52.390Z,31.90
2018-06-03T00:54:52.418Z,33.00
2018-06-03T00:55:52.370Z,32.40
2018-06-03T00:56:52.362Z,31.70
2018-06-03T00:57:52.344Z,32.20
2018-06-03T00:59:52.325Z,32.30
2018-06-03T01:00:52.312Z,32.50
2018-06-03T01:01:52.315Z,30.90
2018-06-03T01:02:52.287Z,33.00
2018-06-03T01:09:52.212Z,32.40
2018-06-03T01:10:52.194Z,32.70
2018-06-03T01:11:52.187Z,33.00
2018-06-03T01:12:52.174Z,32.70
2018-06-03T01:13:52.161Z,31.80
2018-06-03T01:14:52.145Z,33.00
2018-06-03T01:16:52.177Z,33.40
2018-06-03T01:17:52.116Z,32.30
2018-06-03T01:18:52.101Z,32.60
2018-06-03T01:19:52.187Z,34.00
2018-06-03T01:20:52.078Z,33.40
2018-06-03T01:21:52.068Z,32.00
2018-06-03T01:22:52.062Z,32.10
2018-06-03T01:23:52.040Z,33.40
2018-06-03T01:24:52.036Z,32.90
2018-06-03T01:26:52.024Z,33.40
2018-06-03T01:27:52.001Z,34.50
2018-06-03T01:28:52.008Z,34.60
2018-06-03T01:29:51.980Z,35.70
2018-06-03T01:30:51.965Z,35.30
2018-06-03T01:31:51.953Z,35.10
2018-06-03T01:32:51.941Z,35.20
2018-06-03T01:33:51.927Z,36.20
2018-06-03T01:34:51.921Z,37.10
2018-06-03T01:35:51.912Z,36.40
2018-06-03T01:36:51.888Z,38.10
2018-06-03T01:37:51.886Z,37.60
2018-06-03T01:38:51.891Z,38.10
2018-06-03T01:39:51.864Z,37.70
2018-06-03T01:41:51.838Z,39.60
2018-06-03T01:42:51.832Z,38.80
2018-06-03T01:43:51.812Z,38.70
2018-06-03T01:44:51.809Z,40.50
2018-06-03T01:46:51.930Z,39.30
2018-06-03T01:47:51.772Z,40.30
2018-06-03T01:48:51.963Z,38.50
2018-06-03T01:49:51.750Z,39.30
2018-06-03T01:50:51.779Z,38.90
2018-06-03T01:51:51.747Z,39.50
2018-06-03T01:52:51.719Z,39.70
2018-06-03T01:53:51.702Z,38.90
2018-06-03T01:54:51.744Z,39.50
2018-06-03T01:55:51.680Z,39.70
2018-06-03T01:56:51.716Z,40.40
2018-06-03T01:57:51.657Z,39.90
2018-06-03T01:58:51.649Z,40.50
2018-06-03T01:59:51.632Z,40.10
2018-06-03T02:00:51.623Z,40.20
2018-06-03T02:01:51.607Z,42.30
2018-06-03T02:02:51.597Z,40.10
2018-06-03T02:03:51.586Z,41.50
2018-06-03T02:04:51.576Z,41.40
2018-06-03T02:05:51.557Z,41.80
2018-06-03T02:07:51.538Z,39.90
2018-06-03T02:08:51.531Z,42.40
2018-06-03T02:09:51.513Z,42.30
2018-06-03T02:10:51.503Z,41.40
2018-06-03T02:11:51.500Z,42.80
2018-06-03T02:13:51.471Z,42.80
2018-06-03T02:14:51.461Z,43.00
2018-06-03T02:15:51.456Z,42.80
2018-06-03T02:16:51.432Z,42.20
2018-06-03T02:17:51.433Z,40.90
2018-06-03T02:18:51.416Z,43.70
2018-06-03T02:19:51.403Z,44.20
2018-06-03T02:20:51.390Z,42.80
2018-06-03T02:21:51.380Z,42.50
2018-06-03T02:23:51.359Z,42.50
2018-06-03T02:24:51.347Z,44.10
2018-06-03T02:25:51.330Z,41.80
2018-06-03T02:26:51.327Z,43.30
2018-06-03T02:27:51.308Z,44.80
2018-06-03T02:28:51.298Z,44.70
2018-06-03T02:30:51.277Z,46.00
2018-06-03T02:31:51.277Z,44.20
2018-06-03T02:32:51.261Z,44.70
2018-06-03T02:33:51.254Z,44.40
2018-06-03T02:34:51.229Z,44.00
2018-06-03T02:35:51.218Z,44.10
2018-06-03T02:36:51.212Z,43.80
2018-06-03T02:37:51.196Z,44.30
2018-06-03T02:38:51.181Z,45.20
2018-06-03T02:39:51.172Z,43.70
2018-06-03T02:40:51.159Z,43.50
2018-06-03T02:41:51.149Z,44.50
2018-06-03T02:42:51.139Z,45.40
2018-06-03T02:43:51.129Z,44.20
2018-06-03T02:44:51.118Z,45.20
2018-06-03T02:45:51.104Z,46.80
2018-06-03T02:46:51.090Z,43.40
2018-06-03T02:47:51.072Z,44.90
2018-06-03T02:48:51.069Z,44.60
2018-06-03T02:49:51.066Z,44.80
2018-06-03T02:51:51.034Z,47.20
2018-06-03T02:52:51.029Z,45.30
2018-06-03T02:53:51.019Z,47.40
2018-06-03T02:54:50.999Z,45.70
2018-06-03T02:55:50.991Z,46.40
2018-06-03T02:56:50.972Z,46.40
2018-06-03T02:57:50.957Z,46.60
2018-06-03T02:58:50.951Z,45.40
2018-06-03T02:59:50.938Z,46.20
2018-06-03T03:00:50.931Z,46.00
2018-06-03T03:01:50.912Z,45.60
2018-06-03T03:04:50.888Z,45.40
2018-06-03T03:05:50.872Z,46.30
2018-06-03T03:07:50.848Z,47.40
2018-06-03T03:08:50.845Z,47.50
2018-06-03T03:09:50.816Z,46.50
2018-06-03T03:10:50.815Z,48.00
2018-06-03T03:11:50.799Z,45.40
2018-06-03T03:12:50.794Z,45.70
2018-06-03T03:13:50.781Z,46.90
2018-06-03T03:14:50.766Z,47.20
2018-06-03T03:16:51.046Z,48.50
2018-06-03T03:17:50.731Z,45.40
2018-06-03T03:18:50.758Z,47.90
2018-06-03T03:19:50.708Z,47.50
2018-06-03T03:20:50.695Z,46.30
2018-06-03T03:21:50.683Z,47.50
2018-06-03T03:22:50.676Z,46.10
2018-06-03T03:23:50.658Z,47.70
2018-06-03T03:24:50.645Z,48.70
2018-06-03T03:25:50.635Z,45.80
2018-06-03T03:26:50.624Z,46.40
2018-06-03T03:27:50.608Z,47.70
2018-06-03T03:28:50.599Z,44.90
2018-06-03T03:29:50.592Z,45.30
2018-06-03T03:31:50.573Z,44.60
2018-06-03T03:32:50.550Z,48.20
2018-06-03T03:33:50.543Z,45.70
2018-06-03T03:34:50.524Z,46.60
2018-06-03T03:35:50.513Z,44.10
2018-06-03T03:36:50.515Z,45.80
2018-06-03T03:37:50.502Z,46.00
2018-06-03T03:38:50.489Z,46.00
2018-06-03T03:39:50.472Z,45.90
2018-06-03T03:40:50.457Z,46.40
2018-06-03T03:41:50.445Z,44.30
2018-06-03T03:42:50.435Z,45.30
2018-06-03T03:43:50.431Z,45.30
2018-06-03T03:44:50.412Z,45.30
2018-06-03T03:45:50.400Z,46.60
2018-06-03T03:46:50.397Z,46.70
2018-06-03T03:47:50.383Z,44.70
2018-06-03T03:48:50.372Z,44.90
2018-06-03T03:49:50.352Z,43.70
2018-06-03T03:50:50.354Z,45.60
2018-06-03T03:51:50.331Z,45.90
2018-06-03T03:52:50.318Z,46.60
2018-06-03T03:53:50.307Z,43.40
2018-06-03T03:54:50.302Z,45.40
2018-06-03T03:55:50.293Z,44.60
2018-06-03T03:56:50.372Z,43.30
2018-06-03T03:57:50.260Z,43.30
2018-06-03T03:58:50.250Z,44.40
2018-06-03T03:59:50.238Z,44.50
2018-06-03T04:00:50.224Z,44.80
2018-06-03T04:01:50.218Z,44.20
2018-06-03T04:02:50.202Z,45.00
2018-06-03T04:03:50.193Z,45.20
2018-06-03T04:04:50.183Z,44.10
2018-06-03T04:05:50.169Z,43.80
2018-06-03T04:07:50.142Z,44.00
2018-06-03T04:08:50.134Z,43.60
2018-06-03T04:11:50.099Z,43.20
2018-06-03T04:12:50.087Z,45.30
2018-06-03T04:13:50.080Z,44.00
2018-06-03T04:14:50.058Z,44.30
2018-06-03T04:15:50.049Z,43.80
2018-06-03T04:16:50.042Z,44.40
2018-06-03T04:19:50.009Z,43.70
2018-06-03T04:20:49.996Z,43.30
2018-06-03T04:21:49.983Z,42.20
2018-06-03T04:22:49.970Z,42.70
2018-06-03T04:23:49.958Z,42.80
2018-06-03T04:24:49.945Z,45.50
2018-06-03T04:25:49.937Z,42.10
2018-06-03T04:26:49.930Z,43.60
2018-06-03T04:28:49.899Z,42.40
2018-06-03T04:29:49.890Z,44.10
2018-06-03T04:30:49.876Z,43.50
2018-06-03T04:31:49.868Z,43.60
2018-06-03T04:32:49.861Z,43.00
2018-06-03T04:33:49.849Z,43.00
2018-06-03T04:34:49.832Z,42.00
2018-06-03T04:35:49.816Z,43.50
2018-06-03T04:36:49.810Z,42.30
2018-06-03T04:37:49.800Z,39.80
2018-06-03T04:38:49.791Z,42.20
2018-06-03T04:39:49.777Z,42.40
2018-06-03T04:40:49.758Z,41.80
2018-06-03T04:41:49.752Z,41.50
2018-06-03T04:42:49.744Z,43.20
2018-06-03T04:43:49.733Z,44.20
2018-06-03T04:44:49.724Z,42.70
2018-06-03T04:45:49.707Z,42.60
2018-06-03T04:46:49.699Z,43.60
2018-06-03T04:47:49.684Z,43.50
2018-06-03T04:48:49.707Z,44.60
2018-06-03T04:49:49.663Z,43.80
2018-06-03T04:50:49.643Z,44.00
2018-06-03T04:51:49.641Z,44.70
2018-06-03T04:52:49.627Z,43.40
2018-06-03T04:53:49.642Z,44.90
2018-06-03T04:54:49.611Z,43.40
2018-06-03T04:55:49.592Z,43.70
2018-06-03T04:56:49.586Z,44.10
2018-06-03T04:57:49.569Z,44.10
2018-06-03T04:58:49.564Z,45.50
2018-06-03T04:59:49.552Z,43.70
2018-06-03T05:00:49.535Z,46.30
2018-06-03T05:01:49.525Z,44.50
2018-06-03T05:02:49.521Z,45.00
2018-06-03T05:03:49.500Z,45.80
2018-06-03T05:04:49.489Z,43.10
2018-06-03T05:05:49.484Z,46.90
2018-06-03T05:06:49.474Z,44.40
2018-06-03T05:07:49.481Z,44.20
2018-06-03T05:08:49.441Z,46.10
2018-06-03T05:09:49.479Z,45.60
2018-06-03T05:10:49.429Z,45.80
2018-06-03T05:11:49.413Z,44.30
2018-06-03T05:12:49.391Z,45.80
2018-06-03T05:13:49.393Z,45.40
2018-06-03T05:14:49.377Z,46.30
2018-06-03T05:15:49.367Z,44.90
2018-06-03T05:16:49.363Z,45.30
2018-06-03T05:17:49.352Z,47.20
2018-06-03T05:18:49.333Z,46.30
2018-06-03T05:19:49.322Z,45.00
2018-06-03T05:20:49.307Z,46.60
2018-06-03T05:21:49.296Z,47.60
2018-06-03T05:22:49.287Z,45.20
2018-06-03T05:23:49.274Z,46.20
2018-06-03T05:24:49.293Z,47.00
2018-06-03T05:25:49.249Z,46.90
2018-06-03T05:26:49.242Z,47.00
2018-06-03T05:27:49.226Z,45.70
2018-06-03T05:28:49.224Z,46.30
2018-06-03T05:29:49.207Z,45.30
2018-06-03T05:30:49.198Z,46.00
2018-06-03T05:31:49.188Z,46.00
2018-06-03T05:32:49.174Z,44.20
2018-06-03T05:33:49.167Z,46.90
2018-06-03T05:34:49.156Z,45.70
2018-06-03T05:35:49.145Z,45.70
2018-06-03T05:36:49.129Z,46.00
2018-06-03T05:37:49.115Z,46.00
2018-06-03T05:38:49.106Z,47.90
2018-06-03T05:39:49.119Z,45.40
2018-06-03T05:40:49.085Z,48.20
2018-06-03T05:41:49.081Z,46.30
2018-06-03T05:42:49.064Z,44.80
2018-06-03T05:43:49.052Z,45.50
2018-06-03T05:44:49.043Z,45.20
2018-06-03T05:45:49.026Z,45.40
2018-06-03T05:46:49.017Z,45.10
2018-06-03T05:47:49.007Z,45.70
2018-06-03T05:48:48.999Z,43.70
2018-06-03T05:49:48.992Z,44.70
2018-06-03T05:50:48.970Z,46.20
2018-06-03T05:51:48.962Z,47.10
2018-06-03T05:52:48.960Z,48.60
2018-06-03T05:54:49.063Z,46.50
2018-06-03T05:55:48.923Z,46.90
2018-06-03T05:56:48.912Z,48.00
2018-06-03T05:57:48.896Z,48.40
2018-06-03T05:58:48.891Z,47.80
2018-06-03T06:00:48.963Z,47.60
2018-06-03T06:01:48.854Z,49.50
2018-06-03T06:02:48.899Z,48.60
2018-06-03T06:03:48.836Z,48.50
2018-06-03T06:04:48.921Z,49.90
2018-06-03T06:05:48.809Z,47.90
2018-06-03T06:06:48.795Z,47.50
2018-06-03T06:07:48.784Z,46.00
2018-06-03T06:08:48.781Z,48.00
2018-06-03T06:09:48.762Z,48.20
2018-06-03T06:10:48.754Z,45.80
2018-06-03T06:11:48.755Z,48.40
2018-06-03T06:12:48.736Z,49.10
2018-06-03T06:13:48.725Z,46.60
2018-06-03T06:14:48.723Z,49.00
2018-06-03T06:15:48.702Z,47.40
2018-06-03T06:16:48.694Z,47.20
2018-06-03T06:17:48.682Z,46.40
2018-06-03T06:18:48.669Z,46.70
2018-06-03T06:19:48.656Z,44.50
2018-06-03T06:20:48.643Z,45.70
2018-06-03T06:21:48.637Z,48.50
2018-06-03T06:22:48.627Z,45.50
2018-06-03T06:23:48.621Z,45.20
2018-06-03T06:24:48.612Z,45.40
2018-06-03T06:25:48.587Z,46.20
2018-06-03T06:26:48.587Z,44.10
2018-06-03T06:27:48.575Z,45.50
2018-06-03T06:28:48.569Z,43.50
2018-06-03T06:29:48.549Z,44.90
2018-06-03T06:30:48.544Z,46.80
2018-06-03T06:31:48.529Z,44.00
2018-06-03T06:32:48.514Z,46.20
2018-06-03T06:33:48.504Z,46.10
2018-06-03T06:34:48.553Z,46.80
2018-06-03T06:35:48.487Z,44.70
2018-06-03T06:36:48.479Z,44.50
2018-06-03T06:37:48.469Z,45.40
2018-06-03T06:38:48.456Z,43.70
2018-06-03T06:39:48.444Z,44.00
2018-06-03T06:40:48.483Z,43.90
2018-06-03T06:41:48.423Z,43.60
2018-06-03T06:42:48.415Z,44.60
2018-06-03T06:43:48.408Z,45.50
2018-06-03T06:44:48.391Z,46.00
2018-06-03T06:45:48.387Z,44.20
2018-06-03T06:46:48.382Z,43.30
2018-06-03T06:47:48.369Z,44.70
2018-06-03T06:48:48.356Z,44.90
2018-06-03T06:49:48.349Z,43.40
2018-06-03T06:50:48.340Z,42.80
2018-06-03T06:51:48.332Z,42.90
2018-06-03T06:52:48.313Z,41.30
2018-06-03T06:53:48.307Z,42.40
2018-06-03T06:54:48.301Z,42.60
2018-06-03T06:55:48.289Z,43.20
2018-06-03T06:56:48.283Z,43.00
2018-06-03T06:57:48.269Z,42.20
2018-06-03T06:58:48.256Z,42.70
2018-06-03T06:59:48.245Z,42.00
2018-06-03T07:00:48.245Z,41.50
2018-06-03T07:01:48.233Z,42.90
2018-06-03T07:02:48.219Z,40.70
2018-06-03T07:03:48.210Z,40.00
2018-06-03T07:04:48.201Z,40.90
2018-06-03T07:05:48.190Z,42.20
2018-06-03T07:06:48.195Z,38.70
2018-06-03T07:07:48.174Z,37.00
2018-06-03T07:08:48.165Z,37.10
2018-06-03T07:09:48.155Z,35.80
2018-06-03T07:12:48.128Z,35.60
2018-06-03T07:13:48.118Z,33.90
2018-06-03T07:14:48.108Z,33.70
2018-06-03T07:15:48.145Z,32.50
2018-06-03T07:16:48.086Z,34.00
2018-06-03T07:17:48.080Z,33.30
2018-06-03T07:18:48.067Z,31.20
2018-06-03T07:19:48.056Z,32.20
2018-06-03T07:20:48.048Z,29.80
2018-06-03T07:21:48.049Z,29.30
2018-06-03T07:22:48.033Z,30.80
2018-06-03T07:23:48.027Z,29.40
2018-06-03T07:24:48.011Z,28.80
2018-06-03T07:26:47.990Z,28.10
2018-06-03T07:27:47.981Z,29.70
2018-06-03T07:28:47.973Z,29.10
2018-06-03T07:29:47.967Z,28.10
2018-06-03T07:30:47.958Z,28.90
2018-06-03T07:32:47.927Z,28.10
2018-06-03T07:33:47.920Z,28.60
2018-06-03T07:34:47.911Z,30.80
2018-06-03T07:35:47.901Z,28.40
2018-06-03T07:36:47.893Z,29.30
2018-06-03T07:37:47.888Z,29.50
2018-06-03T07:38:47.876Z,28.90
2018-06-03T07:39:47.860Z,29.70
2018-06-03T07:40:47.845Z,29.90
2018-06-03T07:42:47.835Z,28.20
2018-06-03T07:43:47.818Z,28.40
2018-06-03T07:44:47.815Z,28.60
2018-06-03T07:45:47.807Z,28.10
2018-06-03T07:46:47.842Z,27.30
2018-06-03T07:47:47.789Z,26.30
2018-06-03T07:48:47.848Z,26.00
2018-06-03T07:49:47.761Z,25.30
2018-06-03T07:50:47.786Z,23.60
2018-06-03T07:51:47.753Z,20.60
2018-06-03T07:52:47.778Z,21.20
2018-06-03T07:53:47.727Z,22.10
2018-06-03T07:54:47.778Z,22.20
2018-06-03T07:55:47.700Z,22.80
2018-06-03T07:57:47.689Z,23.60
2018-06-03T07:58:47.677Z,22.80
2018-06-03T07:59:47.665Z,23.30
2018-06-03T08:00:47.659Z,22.40
2018-06-03T08:01:47.650Z,22.60
2018-06-03T08:02:47.687Z,22.00
2018-06-03T08:03:47.617Z,20.80
2018-06-03T08:04:47.618Z,22.40
2018-06-03T08:05:47.598Z,22.00
2018-06-03T08:06:47.593Z,21.40
2018-06-03T08:07:47.633Z,21.00
2018-06-03T08:08:47.578Z,21.40
2018-06-03T08:09:47.568Z,23.40
2018-06-03T08:10:47.555Z,23.70
2018-06-03T08:11:47.564Z,23.20
2018-06-03T08:12:47.539Z,22.50
2018-06-03T08:13:47.600Z,21.90
2018-06-03T08:14:47.529Z,21.50
2018-06-03T08:15:47.509Z,21.40
2018-06-03T08:16:47.503Z,21.80
2018-06-03T08:17:47.497Z,21.80
2018-06-03T08:18:47.487Z,22.10
2018-06-03T08:19:47.468Z,22.40
2018-06-03T08:20:47.465Z,23.00
2018-06-03T08:21:47.452Z,37.70
2018-06-03T08:22:47.450Z,23.10
2018-06-03T08:23:47.436Z,22.00
2018-06-03T08:24:47.432Z,21.20
2018-06-03T08:25:47.420Z,23.30
2018-06-03T08:26:47.411Z,22.00
2018-06-03T08:27:47.400Z,25.20
2018-06-03T08:28:47.394Z,20.60
2018-06-03T08:29:47.426Z,20.90
2018-06-03T08:30:47.384Z,19.90
2018-06-03T08:31:47.366Z,19.90
2018-06-03T08:32:47.354Z,21.30
2018-06-03T08:33:47.340Z,21.00
2018-06-03T08:34:47.337Z,20.10
2018-06-03T08:35:47.326Z,20.30
2018-06-03T08:36:47.314Z,20.90
2018-06-03T08:37:47.308Z,22.10
2018-06-03T08:38:47.295Z,21.60
2018-06-03T08:39:47.288Z,21.60
2018-06-03T08:40:47.282Z,21.00
2018-06-03T08:41:47.269Z,20.60
2018-06-03T08:42:47.262Z,21.70
2018-06-03T08:43:47.250Z,21.90
2018-06-03T08:44:47.244Z,22.10
2018-06-03T08:45:47.234Z,20.40
2018-06-03T08:46:47.234Z,21.80
2018-06-03T08:47:47.211Z,22.10
2018-06-03T08:49:47.193Z,22.50
2018-06-03T08:50:47.187Z,23.70
2018-06-03T08:51:47.169Z,23.50
2018-06-03T08:52:47.168Z,23.90
2018-06-03T08:53:47.164Z,25.10
2018-06-03T08:54:47.148Z,24.40
2018-06-03T08:55:47.131Z,23.70
2018-06-03T08:56:47.127Z,24.70
2018-06-03T08:57:47.118Z,24.20
2018-06-03T08:58:47.105Z,24.30
2018-06-03T08:59:47.098Z,25.50
2018-06-03T09:00:47.094Z,23.80
2018-06-03T09:01:47.079Z,24.20
2018-06-03T09:02:47.070Z,23.80
2018-06-03T09:03:47.062Z,23.50
2018-06-03T09:04:47.050Z,25.20
2018-06-03T09:05:47.047Z,23.70
2018-06-03T09:06:47.038Z,24.80
2018-06-03T09:07:47.026Z,23.50
2018-06-03T09:09:46.996Z,25.80
2018-06-03T09:10:46.993Z,24.50
2018-06-03T09:11:46.978Z,24.40
2018-06-03T09:12:46.972Z,23.90
2018-06-03T09:13:46.953Z,24.00
2018-06-03T09:14:46.956Z,24.40
2018-06-03T09:15:46.942Z,24.10
2018-06-03T09:16:46.931Z,23.10
2018-06-03T09:17:46.933Z,23.50
2018-06-03T09:18:46.968Z,24.10
2018-06-03T09:19:46.903Z,25.50
2018-06-03T09:20:46.892Z,49.60
2018-06-03T09:21:46.883Z,25.80
2018-06-03T09:22:46.886Z,25.30
2018-06-03T09:23:46.858Z,25.60
2018-06-03T09:24:46.851Z,24.60
2018-06-03T09:25:46.841Z,26.90
2018-06-03T09:26:46.833Z,26.30
2018-06-03T09:27:46.816Z,26.00
2018-06-03T09:28:46.809Z,26.20
2018-06-03T09:29:46.800Z,27.50
2018-06-03T09:30:46.793Z,26.80
2018-06-03T09:31:46.782Z,27.50
2018-06-03T09:32:46.872Z,26.40
2018-06-03T09:33:46.760Z,28.00
2018-06-03T09:34:46.852Z,27.70
2018-06-03T09:35:46.755Z,26.70
2018-06-03T09:36:46.734Z,27.50
2018-06-03T09:37:46.718Z,28.90
2018-06-03T09:38:46.766Z,28.10
2018-06-03T09:39:46.709Z,27.60
2018-06-03T09:40:46.688Z,27.70
2018-06-03T09:41:46.677Z,26.90
2018-06-03T09:42:46.718Z,26.50
2018-06-03T09:43:46.657Z,29.40
2018-06-03T09:44:46.702Z,28.20
2018-06-03T09:45:46.651Z,32.30
2018-06-03T09:46:46.632Z,28.90
2018-06-03T09:47:46.630Z,27.80
2018-06-03T09:48:46.611Z,27.40
2018-06-03T09:50:46.587Z,27.00
2018-06-03T09:51:46.577Z,25.00
2018-06-03T09:52:46.564Z,25.60
2018-06-03T09:53:46.571Z,26.70
2018-06-03T09:54:46.542Z,24.80
2018-06-03T09:55:46.587Z,24.90
2018-06-03T09:56:46.529Z,24.00
2018-06-03T09:57:46.519Z,22.10
2018-06-03T09:58:46.510Z,22.60
2018-06-03T09:59:46.501Z,23.40
2018-06-03T10:00:46.531Z,22.60
2018-06-03T10:01:46.477Z,22.40
2018-06-03T10:02:46.471Z,22.80
2018-06-03T10:03:46.462Z,21.80
2018-06-03T10:04:46.456Z,21.50
2018-06-03T10:05:46.454Z,21.20
2018-06-03T10:06:46.433Z,21.00
2018-06-03T10:07:46.430Z,22.10
2018-06-03T10:08:46.424Z,20.50
2018-06-03T10:09:46.417Z,20.40
2018-06-03T10:11:46.392Z,21.30
2018-06-03T10:12:46.391Z,20.00
2018-06-03T10:13:46.390Z,19.50
2018-06-03T10:14:46.402Z,19.40
2018-06-03T10:15:46.496Z,19.10
2018-06-03T10:16:46.364Z,19.60
2018-06-03T10:17:46.357Z,19.10
2018-06-03T10:18:46.360Z,18.20
2018-06-03T10:19:46.365Z,17.50
2018-06-03T10:20:46.339Z,17.00
2018-06-03T10:21:46.440Z,17.50
2018-06-03T10:22:46.329Z,16.50
2018-06-03T10:23:46.322Z,16.20
2018-06-03T10:24:46.321Z,16.20
2018-06-03T10:25:46.314Z,14.50
2018-06-03T10:26:46.306Z,15.10
2018-06-03T10:27:46.301Z,15.70
2018-06-03T10:28:46.293Z,14.70
2018-06-03T10:29:46.281Z,14.80
2018-06-03T10:30:46.289Z,14.60
2018-06-03T10:31:46.325Z,14.10
2018-06-03T10:32:46.258Z,15.00
2018-06-03T10:33:46.248Z,14.70
2018-06-03T10:34:46.252Z,13.40
2018-06-03T10:35:46.249Z,13.30
2018-06-03T10:39:46.208Z,16.00
2018-06-03T10:40:46.217Z,16.40
2018-06-03T10:41:46.208Z,16.20
2018-06-03T10:44:46.181Z,13.80
2018-06-03T10:45:46.182Z,14.50
2018-06-03T10:46:46.156Z,14.30
2018-06-03T10:48:46.143Z,14.10
2018-06-03T10:49:46.140Z,13.60
2018-06-03T10:50:46.129Z,14.20
2018-06-03T10:51:46.128Z,13.80
2018-06-03T10:52:46.112Z,13.60
2018-06-03T10:53:46.109Z,13.80
2018-06-03T10:54:46.107Z,20.00
2018-06-03T10:55:46.090Z,14.00
2018-06-03T10:56:46.086Z,13.50
2018-06-03T10:57:46.131Z,17.20
2018-06-03T10:58:46.077Z,13.30
2018-06-03T10:59:46.098Z,13.50
2018-06-03T11:00:46.065Z,11.60
2018-06-03T11:01:46.050Z,11.40
2018-06-03T11:02:46.049Z,11.20
2018-06-03T11:03:46.038Z,11.10
2018-06-03T11:04:46.031Z,11.00
2018-06-03T11:05:46.032Z,11.10
2018-06-03T11:06:46.017Z,10.60
2018-06-03T11:08:46.004Z,10.60
2018-06-03T11:09:46.004Z,10.80
2018-06-03T11:10:45.999Z,10.50
2018-06-03T11:11:45.987Z,10.90
2018-06-03T11:12:45.981Z,9.70
2018-06-03T11:13:45.973Z,10.70
2018-06-03T11:14:45.972Z,10.70
2018-06-03T11:15:45.972Z,11.30
2018-06-03T11:16:45.965Z,11.00
2018-06-03T11:17:45.952Z,11.40
2018-06-03T11:18:45.952Z,12.50
2018-06-03T11:19:45.943Z,12.00
2018-06-03T11:20:45.943Z,10.80
2018-06-03T11:21:45.930Z,12.30
2018-06-03T11:22:45.924Z,12.20
2018-06-03T11:23:45.921Z,11.70
2018-06-03T11:24:45.911Z,12.00
2018-06-03T11:25:45.908Z,11.80
2018-06-03T11:26:45.916Z,11.20
2018-06-03T11:27:45.898Z,11.10
2018-06-03T11:28:45.891Z,11.10
2018-06-03T11:29:45.887Z,12.30
2018-06-03T11:30:45.893Z,12.70
2018-06-03T11:31:45.882Z,12.60
2018-06-03T11:32:45.873Z,11.10
2018-06-03T11:33:45.866Z,11.10
2018-06-03T11:34:45.866Z,10.60
2018-06-03T11:35:45.859Z,10.40
2018-06-03T11:36:45.851Z,9.80
2018-06-03T11:37:45.844Z,10.20
2018-06-03T11:38:45.847Z,10.30
2018-06-03T11:39:45.887Z,10.20
2018-06-03T11:40:45.839Z,10.30
2018-06-03T11:41:45.827Z,9.70
2018-06-03T11:42:45.816Z,9.10
2018-06-03T11:43:45.822Z,9.00
2018-06-03T11:45:45.812Z,8.90
2018-06-03T11:46:45.803Z,7.90
2018-06-03T11:47:45.799Z,9.00
2018-06-03T11:48:45.799Z,9.40
2018-06-03T11:49:45.791Z,8.50
2018-06-03T11:50:45.785Z,8.90
2018-06-03T11:51:45.782Z,8.50
2018-06-03T11:52:45.782Z,8.00
2018-06-03T11:53:45.810Z,8.80
2018-06-03T11:54:45.773Z,7.90
2018-06-03T11:55:45.753Z,8.10
2018-06-03T11:56:45.762Z,8.20
2018-06-03T11:57:45.757Z,7.70
2018-06-03T11:58:45.747Z,8.40
2018-06-03T12:00:45.737Z,8.00
2018-06-03T12:01:45.754Z,7.70
2018-06-03T12:02:45.728Z,7.60
2018-06-03T12:03:45.717Z,8.30
2018-06-03T12:04:45.714Z,7.70
2018-06-03T12:05:45.712Z,8.10
2018-06-03T12:06:45.708Z,7.60
2018-06-03T12:07:45.697Z,8.60
2018-06-03T12:08:45.696Z,7.70
2018-06-03T12:09:45.692Z,7.50
2018-06-03T12:10:45.755Z,7.20
2018-06-03T12:11:45.679Z,6.90
2018-06-03T12:12:45.676Z,7.20
2018-06-03T12:13:45.670Z,7.30
2018-06-03T12:14:45.718Z,7.40
2018-06-03T12:15:45.663Z,7.50
2018-06-03T12:16:45.656Z,7.50
2018-06-03T12:17:45.648Z,8.90
2018-06-03T12:18:45.638Z,8.30
2018-06-03T12:19:45.640Z,8.70
2018-06-03T12:20:45.638Z,9.60
2018-06-03T12:21:45.633Z,9.00
2018-06-03T12:22:45.622Z,9.40
2018-06-03T12:23:45.611Z,8.80
2018-06-03T12:24:45.612Z,8.70
2018-06-03T12:25:45.608Z,10.00
2018-06-03T12:26:45.595Z,10.40
2018-06-03T12:27:45.588Z,10.30
2018-06-03T12:28:45.631Z,10.20
2018-06-03T12:29:45.581Z,8.70
2018-06-03T12:30:45.583Z,9.60
2018-06-03T12:31:45.571Z,9.10
2018-06-03T12:32:45.571Z,8.80
2018-06-03T12:33:45.562Z,10.20
2018-06-03T12:34:45.558Z,9.80
2018-06-03T12:35:45.551Z,9.90
2018-06-03T12:36:45.542Z,9.60
2018-06-03T12:37:45.540Z,13.40
2018-06-03T12:38:45.539Z,15.90
2018-06-03T12:39:45.530Z,12.10
2018-06-03T12:40:45.526Z,9.50
2018-06-03T12:41:45.634Z,10.00
2018-06-03T12:42:45.521Z,9.60
2018-06-03T12:43:45.568Z,10.30
2018-06-03T12:44:45.502Z,12.10
2018-06-03T12:45:45.513Z,11.80
2018-06-03T12:48:45.528Z,10.40
2018-06-03T12:49:45.469Z,11.30
2018-06-03T12:50:45.464Z,11.10
2018-06-03T12:51:45.508Z,10.70
2018-06-03T12:52:45.447Z,10.30
2018-06-03T12:53:45.460Z,10.10
2018-06-03T12:54:45.437Z,9.60
2018-06-03T12:55:45.437Z,9.40
2018-06-03T12:57:45.463Z,9.50
2018-06-03T12:58:45.416Z,9.80
2018-06-03T12:59:45.409Z,9.80
2018-06-03T13:00:45.398Z,10.50
2018-06-03T13:01:45.390Z,10.10
2018-06-03T13:02:45.435Z,9.20
2018-06-03T13:03:45.379Z,10.40
2018-06-03T13:04:45.376Z,11.20
2018-06-03T13:05:45.373Z,12.30
2018-06-03T13:06:45.363Z,11.60
2018-06-03T13:07:45.357Z,12.10
2018-06-03T13:08:45.353Z,11.90
2018-06-03T13:09:45.347Z,11.90
2018-06-03T13:10:45.338Z,12.10
2018-06-03T13:11:45.387Z,11.80
2018-06-03T13:12:45.325Z,11.20
2018-06-03T13:13:45.318Z,11.20
2018-06-03T13:14:45.310Z,10.90
2018-06-03T13:15:45.314Z,11.30
2018-06-03T13:16:45.299Z,11.80
2018-06-03T13:17:45.299Z,12.50
2018-06-03T13:19:45.292Z,11.60
2018-06-03T13:20:45.299Z,10.40
2018-06-03T13:21:45.268Z,11.30
2018-06-03T13:22:45.267Z,11.70
2018-06-03T13:23:45.264Z,10.90
2018-06-03T13:24:45.258Z,10.20
2018-06-03T13:25:45.253Z,10.30
2018-06-03T13:26:45.251Z,10.10
2018-06-03T13:27:45.286Z,10.20
2018-06-03T13:28:45.241Z,10.90
2018-06-03T13:29:45.229Z,10.70
2018-06-03T13:30:45.232Z,10.70
2018-06-03T13:31:45.218Z,11.50
2018-06-03T13:33:45.214Z,11.00
2018-06-03T13:34:45.210Z,11.40
2018-06-03T13:35:45.200Z,12.10
2018-06-03T13:36:45.197Z,11.00
2018-06-03T13:37:45.191Z,10.40
2018-06-03T13:38:45.179Z,11.20
2018-06-03T13:39:45.183Z,11.10
2018-06-03T13:40:45.183Z,11.90
2018-06-03T13:41:45.167Z,11.20
2018-06-03T13:42:45.172Z,10.80
2018-06-03T13:43:45.212Z,10.90
2018-06-03T13:44:45.148Z,11.40
2018-06-03T13:45:45.148Z,11.60
2018-06-03T13:46:45.142Z,10.20
2018-06-03T13:47:45.138Z,11.20
2018-06-03T13:48:45.129Z,11.70
2018-06-03T13:49:45.120Z,11.20
2018-06-03T13:50:45.123Z,11.60
2018-06-03T13:51:45.116Z,11.20
2018-06-03T13:52:45.103Z,10.40
2018-06-03T13:53:45.149Z,10.00